createdAt,value
2023-08-15T00:00:54.167Z,6.80
2023-08-15T00:03:21.875Z,7.10
2023-08-15T00:05:49.884Z,7.10
2023-08-15T00:08:17.343Z,7.20
2023-08-15T00:10:45.001Z,7.80
2023-08-15T00:13:12.458Z,7.40
2023-08-15T00:15:40.224Z,7.30
2023-08-15T00:18:08.138Z,7.30
2023-08-15T00:20:35.572Z,6.90
2023-08-15T00:23:03.109Z,6.90
2023-08-15T00:25:30.680Z,7.70
2023-08-15T00:27:58.335Z,7.90
2023-08-15T00:30:25.997Z,8.00
2023-08-15T00:32:53.481Z,8.30
2023-08-15T00:35:21.118Z,8.60
2023-08-15T00:37:48.687Z,8.10
2023-08-15T00:40:16.235Z,8.50
2023-08-15T00:42:43.799Z,8.40
2023-08-15T00:45:11.567Z,8.10
2023-08-15T00:47:39.724Z,7.60
2023-08-15T00:50:08.194Z,8.50
2023-08-15T00:52:37.065Z,7.70
2023-08-15T00:55:05.484Z,7.30
2023-08-15T00:57:32.887Z,6.40
2023-08-15T01:00:00.692Z,8.20
2023-08-15T01:02:28.342Z,8.80
2023-08-15T01:04:55.935Z,8.80
2023-08-15T01:07:23.553Z,8.70
2023-08-15T01:09:51.163Z,8.80
2023-08-15T01:12:45.596Z,9.10
2023-08-15T01:15:17.198Z,8.30
2023-08-15T01:17:49.907Z,9.60
2023-08-15T01:20:21.227Z,9.40
2023-08-15T01:22:49.002Z,8.80
2023-08-15T01:25:16.463Z,9.00
2023-08-15T01:27:45.447Z,9.50
2023-08-15T01:30:13.646Z,9.20
2023-08-15T01:32:50.061Z,9.10
2023-08-15T01:35:24.113Z,9.30
2023-08-15T01:38:02.487Z,9.20
2023-08-15T01:40:30.772Z,9.20
2023-08-15T01:42:59.856Z,10.00
2023-08-15T01:45:27.558Z,8.80
2023-08-15T01:47:56.185Z,9.60
2023-08-15T01:50:23.805Z,9.80
2023-08-15T01:52:51.361Z,9.60
2023-08-15T01:55:19.022Z,9.00
2023-08-15T01:57:46.482Z,10.00
2023-08-15T02:00:14.387Z,9.60
2023-08-15T02:02:44.910Z,10.50
2023-08-15T02:05:14.676Z,9.70
2023-08-15T02:07:42.356Z,9.20
2023-08-15T02:10:10.287Z,8.60
2023-08-15T02:12:38.088Z,9.70
2023-08-15T02:15:06.471Z,9.70
2023-08-15T02:17:34.101Z,9.60
2023-08-15T02:20:02.376Z,8.80
2023-08-15T02:22:31.194Z,8.80
2023-08-15T02:24:58.759Z,9.10
2023-08-15T02:27:27.748Z,8.70
2023-08-15T02:29:55.305Z,8.00
2023-08-15T02:32:23.090Z,8.90
2023-08-15T02:34:50.484Z,8.70
2023-08-15T02:37:18.032Z,9.30
2023-08-15T02:39:45.548Z,9.20
2023-08-15T02:42:13.210Z,8.50
2023-08-15T02:44:40.694Z,8.60
2023-08-15T02:47:08.239Z,8.30
2023-08-15T02:49:35.787Z,8.80
2023-08-15T02:52:03.172Z,9.00
2023-08-15T02:54:30.601Z,9.00
2023-08-15T02:56:58.179Z,8.60
2023-08-15T03:19:51.385Z,8.20
2023-08-15T03:22:18.476Z,8.50
2023-08-15T03:26:11.665Z,8.40
2023-08-15T03:28:49.087Z,9.00
2023-08-15T03:31:24.875Z,8.80
2023-08-15T03:33:55.035Z,8.90
2023-08-15T03:36:21.828Z,9.50
2023-08-15T03:38:48.881Z,9.60
2023-08-15T03:41:15.515Z,9.30
2023-08-15T03:43:42.803Z,9.90
2023-08-15T03:46:09.542Z,9.60
2023-08-15T03:48:36.662Z,9.70
2023-08-15T03:51:03.382Z,9.40
2023-08-15T03:53:34.601Z,9.70
2023-08-15T03:56:03.113Z,9.90
2023-08-15T03:58:30.938Z,10.70
2023-08-15T04:00:57.558Z,9.10
2023-08-15T04:03:24.318Z,10.20
2023-08-15T04:05:52.498Z,9.50
2023-08-15T04:08:19.204Z,9.40
2023-08-15T04:10:46.458Z,9.20
2023-08-15T04:13:13.229Z,9.00
2023-08-15T04:15:40.093Z,8.30
2023-08-15T04:18:11.296Z,9.10
2023-08-15T04:20:41.749Z,8.90
2023-08-15T04:23:11.370Z,9.40
2023-08-15T04:25:38.685Z,8.90
2023-08-15T04:28:06.249Z,9.60
2023-08-15T04:30:33.964Z,9.30
2023-08-15T04:33:00.669Z,8.10
2023-08-15T04:35:27.787Z,8.60
2023-08-15T04:37:54.702Z,9.30
2023-08-15T04:40:35.223Z,9.10
2023-08-15T04:43:03.048Z,9.00
2023-08-15T04:45:31.531Z,8.90
2023-08-15T04:47:58.679Z,8.50
2023-08-15T04:50:25.878Z,9.10
2023-08-15T04:52:52.648Z,8.60
2023-08-15T04:55:22.952Z,8.10
2023-08-15T05:03:48.811Z,8.00
2023-08-15T05:06:46.975Z,8.70
2023-08-15T05:09:27.867Z,9.60
2023-08-15T05:12:44.608Z,8.60
2023-08-15T05:15:39.027Z,8.30
2023-08-15T05:18:12.035Z,8.50
2023-08-15T05:20:58.453Z,8.20
2023-08-15T05:24:03.473Z,7.70
2023-08-15T05:35:21.822Z,8.10
2023-08-15T05:41:17.716Z,7.80
2023-08-15T05:44:01.335Z,8.30
2023-08-15T05:46:28.135Z,7.90
2023-08-15T05:48:54.925Z,7.90
2023-08-15T05:51:21.588Z,7.50
2023-08-15T05:53:48.508Z,8.70
2023-08-15T05:56:15.261Z,8.10
2023-08-15T05:58:42.025Z,8.30
2023-08-15T06:01:09.079Z,8.70
2023-08-15T06:03:51.302Z,8.50
2023-08-15T06:06:19.553Z,8.00
2023-08-15T06:08:49.260Z,9.00
2023-08-15T06:11:16.060Z,8.10
2023-08-15T06:13:49.239Z,8.50
2023-08-15T06:16:18.765Z,9.30
2023-08-15T06:18:45.818Z,8.90
2023-08-15T06:21:12.565Z,8.40
2023-08-15T06:23:39.456Z,8.30
2023-08-15T06:26:06.245Z,8.70
2023-08-15T06:28:33.195Z,8.20
2023-08-15T06:30:59.952Z,9.10
2023-08-15T06:33:26.678Z,7.80
2023-08-15T06:35:53.635Z,8.80
2023-08-15T06:38:20.255Z,8.90
2023-08-15T06:40:47.288Z,8.30
2023-08-15T06:43:14.067Z,8.30
2023-08-15T06:45:40.782Z,7.70
2023-08-15T06:48:07.591Z,8.10
2023-08-15T06:50:34.445Z,8.80
2023-08-15T06:53:01.314Z,9.30
2023-08-15T06:55:28.198Z,8.70
2023-08-15T06:57:55.001Z,8.80
2023-08-15T07:00:21.963Z,8.60
2023-08-15T07:02:49.626Z,8.10
2023-08-15T07:05:16.555Z,8.00
2023-08-15T07:07:43.197Z,8.00
2023-08-15T07:10:10.982Z,8.60
2023-08-15T07:13:12.720Z,7.70
2023-08-15T07:15:39.424Z,7.50
2023-08-15T07:18:06.354Z,8.40
2023-08-15T07:20:34.410Z,8.70
2023-08-15T07:23:01.416Z,8.30
2023-08-15T07:25:28.065Z,7.90
2023-08-15T07:27:54.866Z,8.40
2023-08-15T07:30:21.646Z,9.00
2023-08-15T07:32:48.252Z,8.10
2023-08-15T07:35:16.158Z,8.40
2023-08-15T07:37:42.995Z,8.10
2023-08-15T07:40:51.238Z,7.40
2023-08-15T07:43:57.195Z,7.00
2023-08-15T07:46:24.723Z,7.60
2023-08-15T07:48:51.504Z,6.90
2023-08-15T07:51:20.099Z,7.30
2023-08-15T07:53:53.043Z,7.10
2023-08-15T07:56:30.648Z,6.90
2023-08-15T07:59:04.625Z,7.30
2023-08-15T08:01:43.335Z,6.50
2023-08-15T08:05:17.664Z,6.50
2023-08-15T08:08:10.232Z,6.90
2023-08-15T08:10:44.174Z,5.40
2023-08-15T08:13:20.655Z,5.30
2023-08-15T08:15:47.890Z,4.60
2023-08-15T08:18:15.102Z,4.80
2023-08-15T08:20:42.241Z,4.70
2023-08-15T08:23:09.385Z,4.90
2023-08-15T08:25:36.740Z,4.80
2023-08-15T08:28:05.273Z,4.40
2023-08-15T08:30:34.857Z,5.30
2023-08-15T08:33:07.374Z,5.10
2023-08-15T08:35:36.638Z,5.20
2023-08-15T08:38:04.198Z,5.40
2023-08-15T08:40:32.248Z,5.60
2023-08-15T08:42:59.072Z,5.10
2023-08-15T08:45:35.181Z,6.10
2023-08-15T08:48:14.383Z,5.20
2023-08-15T08:50:41.878Z,4.60
2023-08-15T08:53:08.528Z,4.90
2023-08-15T08:56:09.428Z,5.00
2023-08-15T08:58:36.892Z,5.40
2023-08-15T09:01:12.346Z,4.70
2023-08-15T09:03:41.722Z,4.70
2023-08-15T09:06:51.688Z,4.50
2023-08-15T09:09:18.633Z,4.60
2023-08-15T09:11:48.118Z,5.10
2023-08-15T09:14:15.624Z,4.40
2023-08-15T09:19:41.396Z,5.00
2023-08-15T09:22:15.534Z,5.00
2023-08-15T09:24:47.914Z,4.80
2023-08-15T09:27:14.686Z,4.80
2023-08-15T09:29:45.627Z,4.80
2023-08-15T09:32:22.735Z,5.10
2023-08-15T09:34:52.714Z,4.90
2023-08-15T09:37:27.373Z,4.50
2023-08-15T09:40:01.752Z,5.30
2023-08-15T09:42:45.294Z,4.50
2023-08-15T09:45:17.390Z,4.20
2023-08-15T09:47:47.429Z,4.20
2023-08-15T09:50:14.819Z,4.50
2023-08-15T09:52:42.547Z,5.00
2023-08-15T09:55:35.159Z,4.40
2023-08-15T09:58:11.053Z,4.80
2023-08-15T10:00:51.898Z,4.70
2023-08-15T10:03:40.250Z,4.30
2023-08-15T10:07:03.849Z,4.40
2023-08-15T10:09:30.999Z,4.60
2023-08-15T10:12:02.392Z,4.30
2023-08-15T10:14:32.871Z,4.50
2023-08-15T10:17:21.575Z,4.30
2023-08-15T10:19:51.390Z,4.30
2023-08-15T10:22:24.498Z,4.20
2023-08-15T10:24:51.723Z,3.90
2023-08-15T10:27:20.258Z,3.80
2023-08-15T10:30:59.476Z,4.40
2023-08-15T10:34:01.705Z,4.60
2023-08-15T10:36:29.129Z,5.00
2023-08-15T10:38:56.290Z,4.50
2023-08-15T10:41:26.151Z,4.70
2023-08-15T10:43:56.618Z,5.20
2023-08-15T10:49:55.512Z,4.70
2023-08-15T10:52:22.697Z,4.50
2023-08-15T10:54:50.163Z,4.70
2023-08-15T10:57:17.609Z,4.70
2023-08-15T10:59:44.952Z,5.40
2023-08-15T11:02:12.449Z,5.50
2023-08-15T11:04:40.816Z,5.10
2023-08-15T11:07:09.781Z,4.30
2023-08-15T11:09:41.453Z,5.40
2023-08-15T11:12:10.093Z,4.90
2023-08-15T11:14:38.020Z,5.30
2023-08-15T11:17:09.827Z,4.90
2023-08-15T11:19:36.894Z,4.80
2023-08-15T11:22:05.824Z,5.40
2023-08-15T11:24:33.293Z,5.50
2023-08-15T11:27:02.004Z,5.10
2023-08-15T11:29:34.442Z,5.20
2023-08-15T11:32:01.892Z,4.80
2023-08-15T11:34:34.358Z,4.40
2023-08-15T11:37:01.366Z,4.70
2023-08-15T11:39:33.587Z,5.50
2023-08-15T11:42:01.831Z,4.80
2023-08-15T11:44:31.234Z,6.00
2023-08-15T11:47:02.003Z,5.30
2023-08-15T11:49:45.965Z,5.20
2023-08-15T11:52:23.152Z,4.50
2023-08-15T11:54:53.358Z,4.70
2023-08-15T11:57:36.302Z,4.20
2023-08-15T12:00:04.637Z,4.50
2023-08-15T12:02:35.489Z,4.20
2023-08-15T12:05:31.077Z,4.70
2023-08-15T12:07:58.246Z,4.70
2023-08-15T12:10:25.783Z,5.30
2023-08-15T12:12:53.241Z,4.90
2023-08-15T12:15:24.736Z,4.90
2023-08-15T12:17:51.812Z,4.90
2023-08-15T12:20:20.519Z,4.50
2023-08-15T12:22:50.486Z,4.90
2023-08-15T12:25:19.330Z,4.80
2023-08-15T12:27:48.473Z,4.60
2023-08-15T12:30:18.020Z,5.10
2023-08-15T12:32:54.176Z,4.90
2023-08-15T12:37:58.153Z,4.70
2023-08-15T12:40:30.912Z,4.80
2023-08-15T12:43:02.379Z,4.50
2023-08-15T12:45:30.234Z,4.60
2023-08-15T12:47:57.848Z,4.50
2023-08-15T12:50:25.881Z,4.80
2023-08-15T12:52:56.335Z,4.20
2023-08-15T12:55:23.997Z,4.90
2023-08-15T12:57:51.387Z,5.10
2023-08-15T13:00:18.988Z,5.00
2023-08-15T13:02:46.706Z,4.70
2023-08-15T13:05:14.174Z,4.90
2023-08-15T13:07:41.654Z,4.80
2023-08-15T13:10:09.177Z,5.30
2023-08-15T13:12:36.697Z,4.70
2023-08-15T13:15:06.600Z,4.90
2023-08-15T13:17:34.466Z,4.50
2023-08-15T13:20:02.134Z,4.40
2023-08-15T13:22:29.690Z,4.80
2023-08-15T13:24:57.296Z,4.40
2023-08-15T13:27:24.849Z,4.30
2023-08-15T13:29:52.405Z,4.20
2023-08-15T13:32:20.127Z,4.50
2023-08-15T13:34:48.032Z,4.80
2023-08-15T13:37:15.390Z,5.20
2023-08-15T13:39:42.918Z,4.60
2023-08-15T13:42:14.828Z,4.70
2023-08-15T13:44:51.043Z,4.60
2023-08-15T13:47:18.605Z,4.50
2023-08-15T13:49:46.060Z,4.60
2023-08-15T13:52:13.519Z,4.60
2023-08-15T13:54:41.079Z,5.10
2023-08-15T13:57:08.727Z,4.40
2023-08-15T13:59:36.715Z,4.90
2023-08-15T14:02:04.626Z,4.50
2023-08-15T14:04:32.968Z,4.00
2023-08-15T14:07:00.837Z,4.30
2023-08-15T14:09:29.029Z,5.40
2023-08-15T14:11:56.458Z,4.90
2023-08-15T14:14:24.021Z,5.10
2023-08-15T14:16:52.120Z,4.70
2023-08-15T14:19:19.494Z,5.50
2023-08-15T14:21:47.418Z,5.50
2023-08-15T14:24:14.924Z,5.00
2023-08-15T14:26:42.663Z,5.30
2023-08-15T14:29:10.007Z,5.40
2023-08-15T14:31:37.433Z,5.00
2023-08-15T14:34:05.160Z,5.10
2023-08-15T14:36:32.884Z,5.40
2023-08-15T14:39:00.439Z,5.60
2023-08-15T14:41:27.939Z,5.10
2023-08-15T14:43:55.459Z,5.50
2023-08-15T14:46:22.984Z,5.60
2023-08-15T14:48:50.576Z,5.80
2023-08-15T14:51:18.181Z,5.60
2023-08-15T14:53:45.641Z,5.90
2023-08-15T14:56:13.784Z,5.70
2023-08-15T14:58:42.693Z,6.40
2023-08-15T15:01:10.327Z,5.20
2023-08-15T15:03:37.850Z,5.40
2023-08-15T15:06:05.394Z,5.70
2023-08-15T15:08:32.931Z,5.80
2023-08-15T15:11:02.717Z,5.50
2023-08-15T15:13:30.390Z,5.10
2023-08-15T15:15:57.949Z,5.00
2023-08-15T15:18:25.527Z,5.50
2023-08-15T15:34:19.473Z,6.10
2023-08-15T15:36:48.084Z,5.90
2023-08-15T15:39:14.916Z,6.20
2023-08-15T15:41:41.646Z,6.00
2023-08-15T15:44:08.425Z,5.60
2023-08-15T15:46:48.856Z,5.90
2023-08-15T15:49:19.861Z,5.50
2023-08-15T15:51:46.342Z,5.70
2023-08-15T15:54:13.367Z,6.10
2023-08-15T15:56:40.215Z,6.10
2023-08-15T15:59:06.950Z,5.30
2023-08-15T16:01:33.917Z,6.40
2023-08-15T16:04:00.613Z,6.00
2023-08-15T16:06:27.583Z,5.90
2023-08-15T16:08:57.194Z,5.80
2023-08-15T16:11:24.146Z,6.00
2023-08-15T16:13:51.709Z,5.40
2023-08-15T16:16:18.445Z,5.60
2023-08-15T16:18:45.073Z,5.80
2023-08-15T16:21:12.004Z,5.40
2023-08-15T16:23:38.574Z,5.90
2023-08-15T16:26:05.235Z,6.00
2023-08-15T16:28:32.038Z,5.70
2023-08-15T16:30:58.676Z,5.60
2023-08-15T16:33:25.155Z,5.60
2023-08-15T16:35:52.567Z,5.40
2023-08-15T16:38:19.408Z,5.50
2023-08-15T16:40:46.050Z,5.80
2023-08-15T16:43:15.276Z,5.70
2023-08-15T16:45:42.516Z,5.00
2023-08-15T16:48:09.405Z,5.60
2023-08-15T16:50:37.212Z,5.40
2023-08-15T16:53:04.101Z,5.00
2023-08-15T16:55:31.105Z,6.40
2023-08-15T16:57:58.094Z,4.80
2023-08-15T17:00:25.814Z,5.10
2023-08-15T17:02:53.500Z,5.40
2023-08-15T17:05:20.526Z,5.00
2023-08-15T17:07:47.364Z,5.20
2023-08-15T17:10:14.422Z,5.80
2023-08-15T17:12:41.348Z,5.40
2023-08-15T17:15:08.715Z,5.50
2023-08-15T17:17:35.343Z,5.70
2023-08-15T17:20:02.072Z,5.70
2023-08-15T17:22:30.798Z,5.80
2023-08-15T17:24:57.352Z,5.00
2023-08-15T17:27:24.087Z,5.40
2023-08-15T17:29:51.615Z,5.30
2023-08-15T17:32:18.457Z,5.40
2023-08-15T17:34:45.200Z,6.20
2023-08-15T17:37:11.940Z,5.70
2023-08-15T17:39:38.579Z,7.00
2023-08-15T17:42:05.732Z,6.20
2023-08-15T17:44:32.573Z,6.00
2023-08-15T17:46:59.238Z,6.40
2023-08-15T17:49:25.952Z,6.50
2023-08-15T17:51:52.669Z,6.30
2023-08-15T17:54:19.436Z,6.50
2023-08-15T17:56:46.029Z,6.90
2023-08-15T17:59:12.583Z,6.30
2023-08-15T18:01:39.520Z,6.60
2023-08-15T18:04:06.358Z,6.90
2023-08-15T18:06:34.239Z,6.80
2023-08-15T18:09:01.626Z,6.90
2023-08-15T18:11:28.224Z,7.00
2023-08-15T18:13:54.943Z,6.90
2023-08-15T18:16:21.619Z,7.60
2023-08-15T18:18:48.434Z,6.80
2023-08-15T18:21:15.129Z,5.90
2023-08-15T18:23:41.867Z,6.70
2023-08-15T18:26:08.504Z,7.30
2023-08-15T18:28:35.559Z,7.10
2023-08-15T18:31:02.190Z,7.10
2023-08-15T18:33:29.111Z,6.90
2023-08-15T18:35:56.593Z,6.30
2023-08-15T18:38:23.441Z,6.70
2023-08-15T18:40:50.138Z,7.20
2023-08-15T18:43:16.836Z,6.60
2023-08-15T18:45:47.066Z,7.20
2023-08-15T18:48:15.154Z,7.50
2023-08-15T18:50:42.610Z,7.60
2023-08-15T18:53:09.314Z,6.90
2023-08-15T18:55:36.097Z,6.60
2023-08-15T18:58:03.125Z,7.50
2023-08-15T19:00:29.687Z,6.90
2023-08-15T19:02:56.343Z,7.20
2023-08-15T19:05:23.052Z,7.60
2023-08-15T19:07:49.792Z,7.70
2023-08-15T19:10:16.494Z,7.30
2023-08-15T19:12:43.261Z,7.20
2023-08-15T19:15:16.753Z,8.00
2023-08-15T19:17:43.810Z,7.90
2023-08-15T19:20:11.448Z,8.30
2023-08-15T19:22:38.425Z,8.70
2023-08-15T19:25:05.863Z,8.40
2023-08-15T19:27:32.516Z,8.00
2023-08-15T19:29:59.328Z,8.10
2023-08-15T19:32:26.419Z,7.50
2023-08-15T19:34:53.015Z,8.40
2023-08-15T19:37:31.057Z,8.20
2023-08-15T19:40:04.052Z,7.50
2023-08-15T19:42:31.023Z,7.30
2023-08-15T19:44:57.463Z,7.30
2023-08-15T19:47:24.303Z,7.80
2023-08-15T19:49:50.896Z,7.50
2023-08-15T19:52:17.784Z,7.90
2023-08-15T19:54:44.420Z,7.70
2023-08-15T19:57:11.035Z,7.80
2023-08-15T19:59:37.850Z,7.40
2023-08-15T20:02:04.783Z,8.00
2023-08-15T20:04:31.557Z,7.30
2023-08-15T20:06:58.267Z,7.50
2023-08-15T20:09:24.780Z,7.10
2023-08-15T20:11:52.529Z,7.50
2023-08-15T20:14:19.070Z,8.00
2023-08-15T20:16:45.737Z,8.60
2023-08-15T20:19:12.410Z,8.70
2023-08-15T20:21:39.940Z,8.10
2023-08-15T20:24:07.397Z,7.20
2023-08-15T20:26:34.285Z,9.50
2023-08-15T20:29:00.892Z,9.50
2023-08-15T20:31:27.600Z,10.20
2023-08-15T20:33:54.328Z,10.40
2023-08-15T20:36:21.204Z,9.30
2023-08-15T20:38:47.946Z,9.40
2023-08-15T20:41:14.582Z,10.20
2023-08-15T20:43:41.234Z,10.10
2023-08-15T20:46:07.910Z,11.20
2023-08-15T20:48:34.598Z,11.40
2023-08-15T20:51:01.340Z,11.10
2023-08-15T20:53:27.878Z,10.80
2023-08-15T20:55:54.825Z,10.20
2023-08-15T20:58:21.460Z,10.20
2023-08-15T21:00:48.436Z,10.20
2023-08-15T21:03:15.198Z,10.60
2023-08-15T21:05:42.810Z,10.80
2023-08-15T21:08:09.430Z,11.60
2023-08-15T21:10:36.207Z,11.80
2023-08-15T21:13:03.039Z,12.40
2023-08-15T21:15:29.613Z,11.00
2023-08-15T21:17:56.235Z,11.10
2023-08-15T21:20:23.775Z,10.70
2023-08-15T21:22:50.901Z,11.20
2023-08-15T21:25:17.792Z,11.50
2023-08-15T21:27:44.601Z,10.60
2023-08-15T21:30:11.445Z,11.90
2023-08-15T21:32:38.147Z,10.40
2023-08-15T21:35:05.462Z,10.30
2023-08-15T21:37:32.302Z,11.20
2023-08-15T21:39:58.920Z,11.10
2023-08-15T21:42:25.770Z,11.10
2023-08-15T21:44:52.331Z,11.80
2023-08-15T21:47:19.196Z,11.20
2023-08-15T21:49:46.196Z,11.40
2023-08-15T21:52:12.831Z,11.00
2023-08-15T21:54:39.408Z,12.20
2023-08-15T21:57:06.191Z,11.70
2023-08-15T21:59:33.366Z,10.90
2023-08-15T22:02:00.582Z,10.40
2023-08-15T22:04:27.573Z,11.60
2023-08-15T22:06:54.220Z,11.40
2023-08-15T22:09:21.661Z,10.90
2023-08-15T22:11:48.400Z,10.80
2023-08-15T22:14:17.420Z,11.00
2023-08-15T22:16:44.510Z,11.00
2023-08-15T22:19:11.042Z,11.40
2023-08-15T22:21:37.819Z,13.00
2023-08-15T22:24:04.990Z,11.50
2023-08-15T22:26:32.236Z,10.50
2023-08-15T22:28:59.070Z,11.00
2023-08-15T22:31:25.849Z,10.90
2023-08-15T22:33:52.652Z,10.70
2023-08-15T22:36:19.315Z,10.80
2023-08-15T22:38:45.980Z,10.40
2023-08-15T22:41:12.522Z,12.20
2023-08-15T22:43:39.180Z,11.10
2023-08-15T22:46:05.930Z,11.00
2023-08-15T22:48:32.687Z,10.80
2023-08-15T22:50:59.328Z,11.40
2023-08-15T22:53:26.100Z,10.60
2023-08-15T22:56:02.140Z,10.90
2023-08-15T22:58:29.079Z,11.90
2023-08-15T23:00:56.875Z,10.30
2023-08-15T23:03:24.418Z,10.20
2023-08-15T23:05:51.448Z,10.50
2023-08-15T23:08:18.219Z,11.00
2023-08-15T23:10:52.300Z,10.70
2023-08-15T23:13:19.137Z,11.30
2023-08-15T23:15:45.629Z,11.10
2023-08-15T23:18:12.951Z,10.70
2023-08-15T23:20:39.650Z,11.10
2023-08-15T23:23:06.110Z,9.70
2023-08-15T23:25:32.571Z,11.20
2023-08-15T23:27:59.178Z,11.70
2023-08-15T23:30:25.936Z,10.90
2023-08-15T23:32:52.713Z,11.40
2023-08-15T23:35:19.512Z,11.10
2023-08-15T23:37:46.151Z,10.60
2023-08-15T23:40:13.205Z,10.00
2023-08-15T23:42:40.215Z,10.10
2023-08-15T23:45:08.247Z,10.80
2023-08-15T23:47:35.325Z,11.40
2023-08-15T23:50:03.247Z,11.70
2023-08-15T23:52:30.149Z,11.00
2023-08-15T23:54:57.468Z,10.60
2023-08-15T23:57:24.660Z,10.90
2023-08-15T23:59:51.934Z,11.30
